Time,TemperatureF,DewpointF,PressureIn,WindDirection,WindDirectionDegrees,WindSpeedMPH,WindSpeedGustMPH,Humidity,HourlyPrecipIn,Conditions,Clouds,dailyrainin,SoftwareType,DateUTC
2013-07-14 00:00:00,71.0,67.9,30.19,N/A,-737280,0.0,0.0,90,0.00,,,0.00,Wunderground v.1.13,2013-07-14 04:00:00,
2013-07-14 00:05:00,71.0,67.9,30.19,N/A,-737280,0.0,0.0,90,0.00,,,0.00,Wunderground v.1.13,2013-07-14 04:05:00,
2013-07-14 00:10:00,70.8,67.7,30.19,N/A,-737280,0.0,0.0,90,0.00,,,0.00,Wunderground v.1.13,2013-07-14 04:10:00,
2013-07-14 00:15:00,70.8,67.7,30.19,N/A,-737280,0.0,0.0,90,0.00,,,0.00,Wunderground v.1.13,2013-07-14 04:15:00,
2013-07-14 00:20:00,70.7,67.6,30.19,N/A,-737280,0.0,0.0,90,0.00,,,0.00,Wunderground v.1.13,2013-07-14 04:20:00,
2013-07-14 00:25:00,70.6,67.5,30.19,N/A,-737280,0.0,0.0,90,0.00,,,0.00,Wunderground v.1.13,2013-07-14 04:25:00,
2013-07-14 00:30:00,70.5,67.7,30.19,N/A,-737280,0.0,0.0,91,0.00,,,0.00,Wunderground v.1.13,2013-07-14 04:30:00,
2013-07-14 00:35:00,70.4,67.6,30.19,SE,135,0.0,1.0,91,0.00,,,0.00,Wunderground v.1.13,2013-07-14 04:35:00,
2013-07-14 00:40:00,70.3,67.5,30.19,N/A,-737280,0.0,0.0,91,0.00,,,0.00,Wunderground v.1.13,2013-07-14 04:40:00,
2013-07-14 00:45:00,70.3,67.5,30.19,N/A,-737280,0.0,0.0,91,0.00,,,0.00,Wunderground v.1.13,2013-07-14 04:45:00,
2013-07-14 00:50:00,70.3,67.5,30.19,N/A,-737280,0.0,0.0,91,0.00,,,0.00,Wunderground v.1.13,2013-07-14 04:50:00,
2013-07-14 00:55:00,70.3,67.5,30.19,N/A,-737280,0.0,0.0,91,0.00,,,0.00,Wunderground v.1.13,2013-07-14 04:55:00,
2013-07-14 01:00:00,70.2,67.4,30.19,N/A,-737280,0.0,0.0,91,0.00,,,0.00,Wunderground v.1.13,2013-07-14 05:00:00,
2013-07-14 01:05:00,70.3,67.5,30.19,SE,135,0.0,1.0,91,0.00,,,0.00,Wunderground v.1.13,2013-07-14 05:05:00,
2013-07-14 01:10:00,70.2,67.8,30.20,N/A,-737280,0.0,0.0,92,0.00,,,0.00,Wunderground v.1.13,2013-07-14 05:10:00,
2013-07-14 01:15:00,70.1,67.7,30.20,N/A,-737280,0.0,0.0,92,0.00,,,0.00,Wunderground v.1.13,2013-07-14 05:15:00,
2013-07-14 01:20:00,70.0,67.6,30.20,N/A,-737280,0.0,0.0,92,0.00,,,0.00,Wunderground v.1.13,2013-07-14 05:20:00,
2013-07-14 01:25:00,69.9,67.5,30.20,N/A,-737280,0.0,0.0,92,0.00,,,0.00,Wunderground v.1.13,2013-07-14 05:25:00,
2013-07-14 01:30:00,69.8,67.4,30.20,N/A,-737280,0.0,0.0,92,0.00,,,0.00,Wunderground v.1.13,2013-07-14 05:30:00,
2013-07-14 01:35:00,69.6,67.2,30.20,N/A,-737280,0.0,0.0,92,0.00,,,0.00,Wunderground v.1.13,2013-07-14 05:35:00,
2013-07-14 01:40:00,69.5,67.1,30.20,N/A,-737280,0.0,0.0,92,0.00,,,0.00,Wunderground v.1.13,2013-07-14 05:40:00,
2013-07-14 01:45:00,69.5,67.1,30.20,SE,135,0.0,1.0,92,0.00,,,0.00,Wunderground v.1.13,2013-07-14 05:45:00,
2013-07-14 01:50:00,69.4,67.3,30.20,N/A,-737280,0.0,0.0,93,0.00,,,0.00,Wunderground v.1.13,2013-07-14 05:50:00,
2013-07-14 01:55:00,69.4,67.0,30.20,N/A,-737280,0.0,0.0,92,0.00,,,0.00,Wunderground v.1.13,2013-07-14 05:55:00,
2013-07-14 02:00:00,69.3,67.2,30.19,SE,135,0.0,1.0,93,0.00,,,0.00,Wunderground v.1.13,2013-07-14 06:00:00,
2013-07-14 02:05:00,69.2,67.1,30.20,N/A,-737280,0.0,0.0,93,0.00,,,0.00,Wunderground v.1.13,2013-07-14 06:05:00,
2013-07-14 02:10:00,69.2,67.1,30.20,N/A,-737280,0.0,0.0,93,0.00,,,0.00,Wunderground v.1.13,2013-07-14 06:10:00,
2013-07-14 02:15:00,69.1,67.0,30.20,N/A,-737280,0.0,0.0,93,0.00,,,0.00,Wunderground v.1.13,2013-07-14 06:15:00,
2013-07-14 02:20:00,69.0,66.9,30.20,SE,135,0.0,1.0,93,0.00,,,0.00,Wunderground v.1.13,2013-07-14 06:20:00,
2013-07-14 02:25:00,68.8,66.7,30.20,N/A,-737280,0.0,0.0,93,0.00,,,0.00,Wunderground v.1.13,2013-07-14 06:25:00,
2013-07-14 02:30:00,68.8,66.7,30.19,SE,135,0.0,1.0,93,0.00,,,0.00,Wunderground v.1.13,2013-07-14 06:30:00,
2013-07-14 02:35:00,68.7,66.6,30.19,N/A,-737280,0.0,0.0,93,0.00,,,0.00,Wunderground v.1.13,2013-07-14 06:35:00,
2013-07-14 02:40:00,68.7,66.6,30.20,N/A,-737280,0.0,0.0,93,0.00,,,0.00,Wunderground v.1.13,2013-07-14 06:40:00,
2013-07-14 02:45:00,68.6,66.5,30.19,N/A,-737280,0.0,0.0,93,0.00,,,0.00,Wunderground v.1.13,2013-07-14 06:45:00,
2013-07-14 02:50:00,68.5,66.4,30.20,N/A,-737280,0.0,0.0,93,0.00,,,0.00,Wunderground v.1.13,2013-07-14 06:50:00,
2013-07-14 02:55:00,68.4,66.3,30.20,N/A,-737280,0.0,0.0,93,0.00,,,0.00,Wunderground v.1.13,2013-07-14 06:55:00,
2013-07-14 03:00:00,68.4,66.3,30.20,N/A,-737280,0.0,0.0,93,0.00,,,0.00,Wunderground v.1.13,2013-07-14 07:00:00,
2013-07-14 03:05:00,68.3,66.2,30.20,N/A,-737280,0.0,0.0,93,0.00,,,0.00,Wunderground v.1.13,2013-07-14 07:05:00,
2013-07-14 03:10:00,68.2,66.1,30.20,N/A,-737280,0.0,0.0,93,0.00,,,0.00,Wunderground v.1.13,2013-07-14 07:10:00,
2013-07-14 03:15:00,68.2,66.1,30.20,N/A,-737280,0.0,0.0,93,0.00,,,0.00,Wunderground v.1.13,2013-07-14 07:15:00,
2013-07-14 03:20:00,68.2,66.1,30.20,N/A,-737280,0.0,0.0,93,0.00,,,0.00,Wunderground v.1.13,2013-07-14 07:20:00,
2013-07-14 03:25:00,68.1,66.0,30.21,N/A,-737280,0.0,0.0,93,0.00,,,0.00,Wunderground v.1.13,2013-07-14 07:25:00,
2013-07-14 03:30:00,68.0,65.9,30.21,N/A,-737280,0.0,0.0,93,0.00,,,0.00,Wunderground v.1.13,2013-07-14 07:30:00,
2013-07-14 03:35:00,68.0,65.9,30.21,N/A,-737280,0.0,0.0,93,0.00,,,0.00,Wunderground v.1.13,2013-07-14 07:35:00,
2013-07-14 03:40:00,67.9,65.8,30.21,N/A,-737280,0.0,0.0,93,0.00,,,0.00,Wunderground v.1.13,2013-07-14 07:40:00,
2013-07-14 03:45:00,67.9,65.8,30.21,N/A,-737280,0.0,0.0,93,0.00,,,0.00,Wunderground v.1.13,2013-07-14 07:45:00,
2013-07-14 03:50:00,67.9,65.8,30.22,N/A,-737280,0.0,0.0,93,0.00,,,0.00,Wunderground v.1.13,2013-07-14 07:50:00,
2013-07-14 03:55:00,67.9,65.8,30.22,N/A,-737280,0.0,0.0,93,0.00,,,0.00,Wunderground v.1.13,2013-07-14 07:55:00,
2013-07-14 04:00:00,67.9,65.8,30.22,N/A,-737280,0.0,0.0,93,0.00,,,0.00,Wunderground v.1.13,2013-07-14 08:00:00,
2013-07-14 04:05:00,67.9,65.8,30.22,N/A,-737280,0.0,0.0,93,0.00,,,0.00,Wunderground v.1.13,2013-07-14 08:05:00,
2013-07-14 04:10:00,67.9,65.8,30.23,SW,225,0.0,1.0,93,0.00,,,0.00,Wunderground v.1.13,2013-07-14 08:10:00,
2013-07-14 04:15:00,67.7,65.9,30.23,N/A,-737280,0.0,0.0,94,0.00,,,0.00,Wunderground v.1.13,2013-07-14 08:15:00,
2013-07-14 04:20:00,67.6,65.8,30.23,N/A,-737280,0.0,0.0,94,0.00,,,0.00,Wunderground v.1.13,2013-07-14 08:20:00,
2013-07-14 04:25:00,67.7,65.9,30.23,SW,225,0.0,1.0,94,0.00,,,0.00,Wunderground v.1.13,2013-07-14 08:25:00,
2013-07-14 04:30:00,67.7,65.9,30.23,N/A,-737280,0.0,0.0,94,0.00,,,0.00,Wunderground v.1.13,2013-07-14 08:30:00,
2013-07-14 04:35:00,67.8,66.0,30.23,N/A,-737280,0.0,0.0,94,0.00,,,0.00,Wunderground v.1.13,2013-07-14 08:35:00,
2013-07-14 04:40:00,67.9,66.1,30.24,N/A,-737280,0.0,0.0,94,0.00,,,0.00,Wunderground v.1.13,2013-07-14 08:40:00,
2013-07-14 04:45:00,68.1,66.3,30.24,SW,225,0.0,1.0,94,0.00,,,0.00,Wunderground v.1.13,2013-07-14 08:45:00,
2013-07-14 04:50:00,68.4,66.9,30.24,SW,225,0.0,1.0,95,0.00,,,0.00,Wunderground v.1.13,2013-07-14 08:50:00,
2013-07-14 04:55:00,68.7,67.2,30.24,SW,225,0.0,1.0,95,0.00,,,0.00,Wunderground v.1.13,2013-07-14 08:55:00,
2013-07-14 05:00:00,69.1,67.6,30.24,SW,225,0.0,2.0,95,0.00,,,0.00,Wunderground v.1.13,2013-07-14 09:00:00,
2013-07-14 05:05:00,69.3,67.8,30.24,SW,225,1.0,2.0,95,0.00,,,0.00,Wunderground v.1.13,2013-07-14 09:05:00,
2013-07-14 05:10:00,69.5,68.0,30.24,SW,225,0.0,1.0,95,0.00,,,0.00,Wunderground v.1.13,2013-07-14 09:10:00,
2013-07-14 05:15:00,69.7,68.2,30.24,SW,225,1.0,3.0,95,0.00,,,0.00,Wunderground v.1.13,2013-07-14 09:15:00,
2013-07-14 05:20:00,70.0,68.5,30.25,SW,225,1.0,3.0,95,0.00,,,0.00,Wunderground v.1.13,2013-07-14 09:20:00,
2013-07-14 05:25:00,70.2,68.7,30.25,SW,225,1.0,3.0,95,0.00,,,0.00,Wunderground v.1.13,2013-07-14 09:25:00,
2013-07-14 05:30:00,70.5,69.0,30.25,SW,225,1.0,2.0,95,0.00,,,0.00,Wunderground v.1.13,2013-07-14 09:30:00,
2013-07-14 05:35:00,70.8,69.0,30.25,SW,225,1.0,2.0,94,0.00,,,0.00,Wunderground v.1.13,2013-07-14 09:35:00,
2013-07-14 05:40:00,71.1,69.3,30.25,SW,225,0.0,1.0,94,0.00,,,0.00,Wunderground v.1.13,2013-07-14 09:40:00,
2013-07-14 05:45:00,71.3,69.2,30.26,SW,225,0.0,2.0,93,0.00,,,0.00,Wunderground v.1.13,2013-07-14 09:45:00,
2013-07-14 05:50:00,71.7,69.3,30.26,SE,135,0.0,3.0,92,0.00,,,0.00,Wunderground v.1.13,2013-07-14 09:50:00,
2013-07-14 05:55:00,72.2,69.7,30.26,East,90,1.0,3.0,92,0.00,,,0.00,Wunderground v.1.13,2013-07-14 09:55:00,
2013-07-14 06:00:00,72.6,69.8,30.25,East,90,0.0,1.0,91,0.00,,,0.00,Wunderground v.1.13,2013-07-14 10:00:00,
2013-07-14 06:05:00,73.2,69.8,30.26,ESE,113,1.0,3.0,89,0.00,,,0.00,Wunderground v.1.13,2013-07-14 10:05:00,
2013-07-14 06:10:00,73.7,70.3,30.26,East,90,0.0,2.0,89,0.00,,,0.00,Wunderground v.1.13,2013-07-14 10:10:00,
2013-07-14 06:15:00,74.3,70.5,30.26,SE,135,0.0,4.0,88,0.00,,,0.00,Wunderground v.1.13,2013-07-14 10:15:00,
2013-07-14 06:20:00,75.1,70.6,30.26,SE,135,0.0,5.0,86,0.00,,,0.00,Wunderground v.1.13,2013-07-14 10:20:00,
2013-07-14 06:25:00,75.9,71.1,30.26,East,90,1.0,5.0,85,0.00,,,0.00,Wunderground v.1.13,2013-07-14 10:25:00,
2013-07-14 06:30:00,76.7,71.1,30.26,SW,225,1.0,2.0,83,0.00,,,0.00,Wunderground v.1.13,2013-07-14 10:30:00,
2013-07-14 06:35:00,77.3,71.7,30.26,SE,135,1.0,3.0,83,0.00,,,0.00,Wunderground v.1.13,2013-07-14 10:35:00,
2013-07-14 06:40:00,78.0,71.7,30.26,NE,45,1.0,3.0,81,0.00,,,0.00,Wunderground v.1.13,2013-07-14 10:40:00,
2013-07-14 06:45:00,78.7,71.6,30.26,NE,45,1.0,4.0,79,0.00,,,0.00,Wunderground v.1.13,2013-07-14 10:45:00,
2013-07-14 06:50:00,79.1,71.3,30.26,South,180,1.0,4.0,77,0.00,,,0.00,Wunderground v.1.13,2013-07-14 10:50:00,
2013-07-14 06:55:00,79.3,71.5,30.26,SE,135,1.0,5.0,77,0.00,,,0.00,Wunderground v.1.13,2013-07-14 10:55:00,
2013-07-14 07:00:00,79.7,71.8,30.26,SSE,158,1.0,3.0,77,0.00,,,0.00,Wunderground v.1.13,2013-07-14 11:00:00,
2013-07-14 07:05:00,79.8,71.6,30.26,South,180,1.0,5.0,76,0.00,,,0.00,Wunderground v.1.13,2013-07-14 11:05:00,
2013-07-14 07:10:00,79.8,71.2,30.26,SE,135,1.0,4.0,75,0.00,,,0.00,Wunderground v.1.13,2013-07-14 11:10:00,
2013-07-14 07:15:00,79.8,70.8,30.26,SE,135,2.0,8.0,74,0.00,,,0.00,Wunderground v.1.13,2013-07-14 11:15:00,
2013-07-14 07:20:00,79.8,70.4,30.26,SE,135,3.0,9.0,73,0.00,,,0.00,Wunderground v.1.13,2013-07-14 11:20:00,
2013-07-14 07:25:00,80.1,71.5,30.26,East,90,0.0,2.0,75,0.00,,,0.00,Wunderground v.1.13,2013-07-14 11:25:00,
2013-07-14 07:30:00,80.3,71.6,30.26,SSE,158,1.0,5.0,75,0.00,,,0.00,Wunderground v.1.13,2013-07-14 11:30:00,
2013-07-14 07:35:00,80.7,71.2,30.26,SE,135,2.0,5.0,73,0.00,,,0.00,Wunderground v.1.13,2013-07-14 11:35:00,
2013-07-14 07:40:00,80.8,72.5,30.26,SSE,158,2.0,6.0,76,0.00,,,0.00,Wunderground v.1.13,2013-07-14 11:40:00,
2013-07-14 07:45:00,81.1,72.0,30.26,SSE,158,1.0,5.0,74,0.00,,,0.00,Wunderground v.1.13,2013-07-14 11:45:00,
2013-07-14 07:50:00,81.5,71.6,30.26,SSE,158,1.0,3.0,72,0.00,,,0.00,Wunderground v.1.13,2013-07-14 11:50:00,
2013-07-14 07:55:00,81.7,71.4,30.26,SSE,158,2.0,7.0,71,0.00,,,0.00,Wunderground v.1.13,2013-07-14 11:55:00,
2013-07-14 08:00:00,81.8,73.5,30.26,SSE,158,1.0,5.0,76,0.00,,,0.00,Wunderground v.1.13,2013-07-14 12:00:00,
2013-07-14 08:05:00,81.3,70.2,30.26,SE,135,3.0,7.0,69,0.00,,,0.00,Wunderground v.1.13,2013-07-14 12:05:00,
2013-07-14 08:10:00,81.3,70.2,30.26,SW,225,4.0,12.0,69,0.00,,,0.00,Wunderground v.1.13,2013-07-14 12:10:00,
2013-07-14 08:15:00,81.3,70.6,30.26,SE,135,2.0,12.0,70,0.00,,,0.00,Wunderground v.1.13,2013-07-14 12:15:00,
2013-07-14 08:20:00,81.8,70.6,30.25,SE,135,2.0,5.0,69,0.00,,,0.00,Wunderground v.1.13,2013-07-14 12:20:00,
2013-07-14 08:25:00,82.0,70.8,30.25,SE,135,2.0,8.0,69,0.00,,,0.00,Wunderground v.1.13,2013-07-14 12:25:00,
2013-07-14 08:30:00,82.1,71.8,30.25,South,180,2.0,5.0,71,0.00,,,0.00,Wunderground v.1.13,2013-07-14 12:30:00,
2013-07-14 08:35:00,82.4,70.8,30.25,SSE,158,1.0,8.0,68,0.00,,,0.00,Wunderground v.1.13,2013-07-14 12:35:00,
2013-07-14 08:40:00,83.1,72.3,30.25,SE,135,1.0,5.0,70,0.00,,,0.00,Wunderground v.1.13,2013-07-14 12:40:00,
2013-07-14 08:45:00,83.3,71.2,30.25,SW,225,2.0,8.0,67,0.00,,,0.00,Wunderground v.1.13,2013-07-14 12:45:00,
2013-07-14 08:50:00,82.9,69.9,30.25,SW,225,4.0,12.0,65,0.00,,,0.00,Wunderground v.1.13,2013-07-14 12:50:00,
2013-07-14 08:55:00,83.0,70.9,30.25,SE,135,3.0,7.0,67,0.00,,,0.00,Wunderground v.1.13,2013-07-14 12:55:00,
2013-07-14 09:00:00,83.0,70.9,30.25,SW,225,4.0,7.0,67,0.00,,,0.00,Wunderground v.1.13,2013-07-14 13:00:00,
2013-07-14 09:05:00,83.2,70.7,30.25,SSE,158,2.0,8.0,66,0.00,,,0.00,Wunderground v.1.13,2013-07-14 13:05:00,
2013-07-14 09:10:00,83.2,71.5,30.25,SE,135,3.0,9.0,68,0.00,,,0.00,Wunderground v.1.13,2013-07-14 13:10:00,
2013-07-14 09:15:00,83.4,71.7,30.25,ESE,113,3.0,9.0,68,0.00,,,0.00,Wunderground v.1.13,2013-07-14 13:15:00,
2013-07-14 09:20:00,83.6,71.9,30.25,SSE,158,2.0,7.0,68,0.00,,,0.00,Wunderground v.1.13,2013-07-14 13:20:00,
2013-07-14 09:25:00,83.7,72.4,30.25,South,180,2.0,5.0,69,0.00,,,0.00,Wunderground v.1.13,2013-07-14 13:25:00,
2013-07-14 09:30:00,83.9,70.9,30.25,ESE,113,3.0,9.0,65,0.00,,,0.00,Wunderground v.1.13,2013-07-14 13:30:00,
2013-07-14 09:35:00,84.0,71.9,30.25,SE,135,1.0,5.0,67,0.00,,,0.00,Wunderground v.1.13,2013-07-14 13:35:00,
2013-07-14 09:40:00,84.3,72.1,30.25,ESE,113,2.0,7.0,67,0.00,,,0.00,Wunderground v.1.13,2013-07-14 13:40:00,
2013-07-14 09:45:00,84.5,71.0,30.25,SE,135,2.0,8.0,64,0.00,,,0.00,Wunderground v.1.13,2013-07-14 13:45:00,
2013-07-14 09:50:00,84.7,72.1,30.25,South,180,2.0,6.0,66,0.00,,,0.00,Wunderground v.1.13,2013-07-14 13:50:00,
2013-07-14 09:55:00,84.8,72.6,30.25,South,180,1.0,7.0,67,0.00,,,0.00,Wunderground v.1.13,2013-07-14 13:55:00,
2013-07-14 10:00:00,85.0,72.8,30.25,SW,225,1.0,5.0,67,0.00,,,0.00,Wunderground v.1.13,2013-07-14 14:00:00,
2013-07-14 10:05:00,84.4,72.2,30.24,SSE,158,1.0,4.0,67,0.00,,,0.00,Wunderground v.1.13,2013-07-14 14:05:00,
2013-07-14 10:10:00,84.4,72.2,30.24,South,180,2.0,4.0,67,0.00,,,0.00,Wunderground v.1.13,2013-07-14 14:10:00,
2013-07-14 10:15:00,84.5,71.9,30.25,SSE,158,1.0,3.0,66,0.00,,,0.00,Wunderground v.1.13,2013-07-14 14:15:00,
2013-07-14 10:20:00,84.8,71.7,30.24,East,90,1.0,2.0,65,0.00,,,0.00,Wunderground v.1.13,2013-07-14 14:20:00,
2013-07-14 10:25:00,85.5,74.2,30.24,SE,135,1.0,6.0,69,0.00,,,0.00,Wunderground v.1.13,2013-07-14 14:25:00,
2013-07-14 10:30:00,85.9,73.2,30.24,SE,135,1.0,4.0,66,0.00,,,0.00,Wunderground v.1.13,2013-07-14 14:30:00,
2013-07-14 10:35:00,85.9,73.7,30.24,South,180,1.0,6.0,67,0.00,,,0.00,Wunderground v.1.13,2013-07-14 14:35:00,
2013-07-14 10:40:00,85.5,71.9,30.24,SW,225,3.0,6.0,64,0.00,,,0.00,Wunderground v.1.13,2013-07-14 14:40:00,
2013-07-14 10:45:00,85.8,73.1,30.24,SW,225,1.0,4.0,66,0.00,,,0.00,Wunderground v.1.13,2013-07-14 14:45:00,
2013-07-14 10:50:00,86.2,73.0,30.24,East,90,1.0,4.0,65,0.00,,,0.00,Wunderground v.1.13,2013-07-14 14:50:00,
2013-07-14 10:55:00,86.3,72.7,30.24,SE,135,0.0,1.0,64,0.00,,,0.00,Wunderground v.1.13,2013-07-14 14:55:00,
2013-07-14 11:00:00,86.7,73.5,30.24,SE,135,1.0,3.0,65,0.00,,,0.00,Wunderground v.1.13,2013-07-14 15:00:00,
2013-07-14 11:05:00,86.6,73.4,30.24,SE,135,1.0,4.0,65,0.00,,,0.00,Wunderground v.1.13,2013-07-14 15:05:00,
2013-07-14 11:10:00,86.5,72.4,30.24,SSW,203,2.0,5.0,63,0.00,,,0.00,Wunderground v.1.13,2013-07-14 15:10:00,
2013-07-14 11:15:00,86.2,72.6,30.24,SSW,203,1.0,6.0,64,0.00,,,0.00,Wunderground v.1.13,2013-07-14 15:15:00,
2013-07-14 11:20:00,86.4,71.8,30.24,SE,135,1.0,7.0,62,0.00,,,0.00,Wunderground v.1.13,2013-07-14 15:20:00,
2013-07-14 11:25:00,86.5,72.9,30.23,SSE,158,1.0,4.0,64,0.00,,,0.00,Wunderground v.1.13,2013-07-14 15:25:00,
2013-07-14 11:30:00,86.6,72.0,30.23,SSE,158,2.0,7.0,62,0.00,,,0.00,Wunderground v.1.13,2013-07-14 15:30:00,
2013-07-14 11:35:00,86.8,72.2,30.23,West,270,2.0,5.0,62,0.00,,,0.00,Wunderground v.1.13,2013-07-14 15:35:00,
2013-07-14 11:40:00,86.9,73.3,30.23,SSE,158,1.0,5.0,64,0.00,,,0.00,Wunderground v.1.13,2013-07-14 15:40:00,
2013-07-14 11:45:00,87.1,73.4,30.23,SSE,158,1.0,4.0,64,0.00,,,0.00,Wunderground v.1.13,2013-07-14 15:45:00,
2013-07-14 11:50:00,87.9,73.3,30.23,ESE,113,1.0,3.0,62,0.00,,,0.00,Wunderground v.1.13,2013-07-14 15:50:00,
2013-07-14 11:55:00,88.3,73.6,30.23,ESE,113,1.0,3.0,62,0.00,,,0.00,Wunderground v.1.13,2013-07-14 15:55:00,
2013-07-14 12:00:00,88.0,73.3,30.23,SE,135,1.0,4.0,62,0.00,,,0.00,Wunderground v.1.13,2013-07-14 16:00:00,
2013-07-14 12:05:00,86.8,71.7,30.23,SE,135,2.0,10.0,61,0.00,,,0.00,Wunderground v.1.13,2013-07-14 16:05:00,
2013-07-14 12:10:00,86.9,72.8,30.22,SSE,158,1.0,5.0,63,0.00,,,0.00,Wunderground v.1.13,2013-07-14 16:10:00,
2013-07-14 12:15:00,87.5,74.7,30.22,SE,135,1.0,3.0,66,0.00,,,0.00,Wunderground v.1.13,2013-07-14 16:15:00,
2013-07-14 12:20:00,87.9,74.2,30.22,South,180,1.0,5.0,64,0.00,,,0.00,Wunderground v.1.13,2013-07-14 16:20:00,
2013-07-14 12:25:00,88.0,74.8,30.22,SSE,158,1.0,3.0,65,0.00,,,0.00,Wunderground v.1.13,2013-07-14 16:25:00,
2013-07-14 12:30:00,88.6,73.4,30.21,WNW,293,1.0,3.0,61,0.00,,,0.00,Wunderground v.1.13,2013-07-14 16:30:00,
2013-07-14 12:35:00,88.4,72.7,30.21,SE,135,2.0,5.0,60,0.00,,,0.00,Wunderground v.1.13,2013-07-14 16:35:00,
2013-07-14 12:40:00,88.3,73.6,30.21,WSW,248,2.0,8.0,62,0.00,,,0.00,Wunderground v.1.13,2013-07-14 16:40:00,
2013-07-14 12:45:00,88.1,73.0,30.21,SE,135,2.0,8.0,61,0.00,,,0.00,Wunderground v.1.13,2013-07-14 16:45:00,
2013-07-14 12:50:00,87.9,72.8,30.21,SSW,203,2.0,7.0,61,0.00,,,0.00,Wunderground v.1.13,2013-07-14 16:50:00,
2013-07-14 12:55:00,88.4,72.2,30.21,WSW,248,1.0,3.0,59,0.00,,,0.00,Wunderground v.1.13,2013-07-14 16:55:00,
2013-07-14 13:00:00,88.5,73.3,30.21,SSE,158,1.0,3.0,61,0.00,,,0.00,Wunderground v.1.13,2013-07-14 17:00:00,
2013-07-14 13:05:00,88.4,72.2,30.21,WSW,248,1.0,4.0,59,0.00,,,0.00,Wunderground v.1.13,2013-07-14 17:05:00,
2013-07-14 13:10:00,88.6,73.4,30.21,WSW,248,1.0,4.0,61,0.00,,,0.00,Wunderground v.1.13,2013-07-14 17:10:00,
2013-07-14 13:15:00,88.9,72.7,30.21,SSE,158,1.0,3.0,59,0.00,,,0.00,Wunderground v.1.13,2013-07-14 17:15:00,
2013-07-14 13:20:00,89.4,73.7,30.20,SE,135,1.0,6.0,60,0.00,,,0.00,Wunderground v.1.13,2013-07-14 17:20:00,
2013-07-14 13:25:00,89.6,72.9,30.20,West,270,3.0,7.0,58,0.00,,,0.00,Wunderground v.1.13,2013-07-14 17:25:00,
2013-07-14 13:30:00,89.3,73.1,30.21,SSE,158,2.0,6.0,59,0.00,,,0.00,Wunderground v.1.13,2013-07-14 17:30:00,
2013-07-14 13:35:00,89.5,73.8,30.20,West,270,2.0,5.0,60,0.00,,,0.00,Wunderground v.1.13,2013-07-14 17:35:00,
2013-07-14 13:40:00,89.5,72.3,30.20,NNW,338,2.0,4.0,57,0.00,,,0.00,Wunderground v.1.13,2013-07-14 17:40:00,
2013-07-14 13:45:00,89.8,73.0,30.20,SSW,203,1.0,3.0,58,0.00,,,0.00,Wunderground v.1.13,2013-07-14 17:45:00,
2013-07-14 13:50:00,89.6,74.4,30.20,SSW,203,1.0,7.0,61,0.00,,,0.00,Wunderground v.1.13,2013-07-14 17:50:00,
2013-07-14 13:55:00,90.0,73.2,30.20,SE,135,0.0,2.0,58,0.00,,,0.00,Wunderground v.1.13,2013-07-14 17:55:00,
2013-07-14 14:00:00,90.2,73.4,30.20,SSE,158,1.0,6.0,58,0.00,,,0.00,Wunderground v.1.13,2013-07-14 18:00:00,
2013-07-14 14:05:00,90.6,72.8,30.20,West,270,2.0,5.0,56,0.00,,,0.00,Wunderground v.1.13,2013-07-14 18:05:00,
2013-07-14 14:10:00,90.3,73.5,30.20,SE,135,2.0,5.0,58,0.00,,,0.00,Wunderground v.1.13,2013-07-14 18:10:00,
2013-07-14 14:15:00,90.1,73.3,30.20,SW,225,2.0,7.0,58,0.00,,,0.00,Wunderground v.1.13,2013-07-14 18:15:00,
2013-07-14 14:20:00,90.0,72.2,30.20,West,270,3.0,6.0,56,0.00,,,0.00,Wunderground v.1.13,2013-07-14 18:20:00,
2013-07-14 14:25:00,90.0,73.2,30.20,West,270,1.0,3.0,58,0.00,,,0.00,Wunderground v.1.13,2013-07-14 18:25:00,
2013-07-14 14:30:00,90.3,74.0,30.20,SSW,203,1.0,5.0,59,0.00,,,0.00,Wunderground v.1.13,2013-07-14 18:30:00,
2013-07-14 14:35:00,90.4,73.6,30.20,WSW,248,2.0,6.0,58,0.00,,,0.00,Wunderground v.1.13,2013-07-14 18:35:00,
2013-07-14 14:40:00,90.6,72.8,30.20,West,270,1.0,5.0,56,0.00,,,0.00,Wunderground v.1.13,2013-07-14 18:40:00,
2013-07-14 14:45:00,90.2,73.4,30.20,West,270,2.0,4.0,58,0.00,,,0.00,Wunderground v.1.13,2013-07-14 18:45:00,
2013-07-14 14:50:00,89.8,74.6,30.20,SW,225,2.0,5.0,61,0.00,,,0.00,Wunderground v.1.13,2013-07-14 18:50:00,
2013-07-14 14:55:00,90.4,75.1,30.19,SW,225,1.0,3.0,61,0.00,,,0.00,Wunderground v.1.13,2013-07-14 18:55:00,
2013-07-14 15:00:00,90.6,73.3,30.20,West,270,2.0,6.0,57,0.00,,,0.00,Wunderground v.1.13,2013-07-14 19:00:00,
2013-07-14 15:05:00,91.3,76.0,30.20,West,270,1.0,3.0,61,0.00,,,0.00,Wunderground v.1.13,2013-07-14 19:05:00,
2013-07-14 15:10:00,91.4,75.6,30.19,West,270,1.0,2.0,60,0.00,,,0.00,Wunderground v.1.13,2013-07-14 19:10:00,
2013-07-14 15:15:00,91.8,76.9,30.19,WSW,248,1.0,2.0,62,0.00,,,0.00,Wunderground v.1.13,2013-07-14 19:15:00,
2013-07-14 15:20:00,92.0,75.6,30.19,WSW,248,0.0,2.0,59,0.00,,,0.00,Wunderground v.1.13,2013-07-14 19:20:00,
2013-07-14 15:25:00,92.2,75.8,30.19,WSW,248,1.0,2.0,59,0.00,,,0.00,Wunderground v.1.13,2013-07-14 19:25:00,
2013-07-14 15:30:00,92.1,74.1,30.19,WSW,248,2.0,6.0,56,0.00,,,0.00,Wunderground v.1.13,2013-07-14 19:30:00,
2013-07-14 15:35:00,91.6,73.7,30.20,NW,315,2.0,5.0,56,0.00,,,0.00,Wunderground v.1.13,2013-07-14 19:35:00,
2013-07-14 15:40:00,90.9,73.6,30.20,NW,315,2.0,3.0,57,0.00,,,0.00,Wunderground v.1.13,2013-07-14 19:40:00,
2013-07-14 15:45:00,90.4,74.6,30.19,WNW,293,1.0,3.0,60,0.00,,,0.00,Wunderground v.1.13,2013-07-14 19:45:00,
2013-07-14 15:50:00,90.4,74.6,30.19,WNW,293,1.0,2.0,60,0.00,,,0.00,Wunderground v.1.13,2013-07-14 19:50:00,
2013-07-14 15:55:00,90.2,74.9,30.20,WNW,293,1.0,3.0,61,0.00,,,0.00,Wunderground v.1.13,2013-07-14 19:55:00,
2013-07-14 16:00:00,90.1,74.3,30.20,WNW,293,1.0,2.0,60,0.00,,,0.00,Wunderground v.1.13,2013-07-14 20:00:00,
2013-07-14 16:05:00,90.4,73.6,30.20,WNW,293,1.0,3.0,58,0.00,,,0.00,Wunderground v.1.13,2013-07-14 20:05:00,
2013-07-14 16:10:00,90.9,75.1,30.20,WNW,293,1.0,2.0,60,0.00,,,0.00,Wunderground v.1.13,2013-07-14 20:10:00,
2013-07-14 16:15:00,91.1,75.3,30.19,WNW,293,2.0,3.0,60,0.00,,,0.00,Wunderground v.1.13,2013-07-14 20:15:00,
2013-07-14 16:20:00,90.8,75.0,30.19,WNW,293,2.0,3.0,60,0.00,,,0.00,Wunderground v.1.13,2013-07-14 20:20:00,
2013-07-14 16:25:00,90.3,75.0,30.19,WNW,293,2.0,2.0,61,0.00,,,0.00,Wunderground v.1.13,2013-07-14 20:25:00,
2013-07-14 16:30:00,89.7,74.5,30.19,WNW,293,2.0,3.0,61,0.00,,,0.00,Wunderground v.1.13,2013-07-14 20:30:00,
2013-07-14 16:35:00,89.1,73.9,30.19,WNW,293,2.0,3.0,61,0.00,,,0.00,Wunderground v.1.13,2013-07-14 20:35:00,
2013-07-14 16:40:00,88.6,74.4,30.19,WNW,293,2.0,3.0,63,0.00,,,0.00,Wunderground v.1.13,2013-07-14 20:40:00,
2013-07-14 16:45:00,87.7,73.5,30.19,WNW,293,2.0,3.0,63,0.00,,,0.00,Wunderground v.1.13,2013-07-14 20:45:00,
2013-07-14 16:50:00,86.7,73.5,30.19,WNW,293,2.0,3.0,65,0.00,,,0.00,Wunderground v.1.13,2013-07-14 20:50:00,
2013-07-14 16:55:00,85.9,73.7,30.19,WNW,293,2.0,3.0,67,0.00,,,0.00,Wunderground v.1.13,2013-07-14 20:55:00,
2013-07-14 17:00:00,85.2,73.4,30.19,WNW,293,2.0,3.0,68,0.00,,,0.00,Wunderground v.1.13,2013-07-14 21:00:00,
2013-07-14 17:05:00,84.6,73.7,30.19,WNW,293,2.0,3.0,70,0.00,,,0.00,Wunderground v.1.13,2013-07-14 21:05:00,
2013-07-14 17:10:00,84.3,72.6,30.19,WNW,293,0.0,2.0,68,0.00,,,0.00,Wunderground v.1.13,2013-07-14 21:10:00,
2013-07-14 17:15:00,84.0,73.2,30.19,WNW,293,2.0,2.0,70,0.00,,,0.00,Wunderground v.1.13,2013-07-14 21:15:00,
2013-07-14 17:20:00,83.8,73.4,30.20,WNW,293,1.0,2.0,71,0.00,,,0.00,Wunderground v.1.13,2013-07-14 21:20:00,
2013-07-14 17:25:00,83.3,72.9,30.20,WNW,293,1.0,2.0,71,0.00,,,0.00,Wunderground v.1.13,2013-07-14 21:25:00,
2013-07-14 17:30:00,82.9,73.4,30.20,WNW,293,1.0,2.0,73,0.00,,,0.00,Wunderground v.1.13,2013-07-14 21:30:00,
2013-07-14 17:35:00,82.5,73.4,30.20,WNW,293,1.0,2.0,74,0.00,,,0.00,Wunderground v.1.13,2013-07-14 21:35:00,
2013-07-14 17:40:00,82.2,73.1,30.20,WNW,293,1.0,1.0,74,0.00,,,0.00,Wunderground v.1.13,2013-07-14 21:40:00,
2013-07-14 17:45:00,82.1,73.4,30.20,WNW,293,0.0,1.0,75,0.00,,,0.00,Wunderground v.1.13,2013-07-14 21:45:00,
2013-07-14 17:50:00,82.1,73.8,30.20,N/A,-737280,0.0,0.0,76,0.00,,,0.00,Wunderground v.1.13,2013-07-14 21:50:00,
2013-07-14 17:55:00,82.0,74.1,30.20,N/A,-737280,0.0,0.0,77,0.00,,,0.00,Wunderground v.1.13,2013-07-14 21:55:00,
2013-07-14 18:00:00,81.8,73.9,30.20,N/A,-737280,0.0,0.0,77,0.00,,,0.00,Wunderground v.1.13,2013-07-14 22:00:00,
2013-07-14 18:05:00,81.6,73.7,30.20,N/A,-737280,0.0,0.0,77,0.00,,,0.00,Wunderground v.1.13,2013-07-14 22:05:00,
2013-07-14 18:10:00,81.4,73.5,30.20,N/A,-737280,0.0,0.0,77,0.00,,,0.00,Wunderground v.1.13,2013-07-14 22:10:00,
2013-07-14 18:15:00,81.1,73.6,30.20,N/A,-737280,0.0,0.0,78,0.00,,,0.00,Wunderground v.1.13,2013-07-14 22:15:00,
2013-07-14 18:20:00,80.8,73.3,30.20,N/A,-737280,0.0,0.0,78,0.00,,,0.00,Wunderground v.1.13,2013-07-14 22:20:00,
2013-07-14 18:25:00,80.5,72.6,30.20,N/A,-737280,0.0,0.0,77,0.00,,,0.00,Wunderground v.1.13,2013-07-14 22:25:00,
2013-07-14 18:30:00,80.0,72.5,30.20,N/A,-737280,0.0,0.0,78,0.00,,,0.00,Wunderground v.1.13,2013-07-14 22:30:00,
2013-07-14 18:35:00,79.8,72.3,30.20,N/A,-737280,0.0,0.0,78,0.00,,,0.00,Wunderground v.1.13,2013-07-14 22:35:00,
2013-07-14 18:40:00,79.6,72.1,30.20,N/A,-737280,0.0,0.0,78,0.00,,,0.00,Wunderground v.1.13,2013-07-14 22:40:00,
2013-07-14 18:45:00,79.3,72.2,30.21,N/A,-737280,0.0,0.0,79,0.00,,,0.00,Wunderground v.1.13,2013-07-14 22:45:00,
2013-07-14 18:50:00,79.0,71.9,30.21,N/A,-737280,0.0,0.0,79,0.00,,,0.00,Wunderground v.1.13,2013-07-14 22:50:00,
2013-07-14 18:55:00,78.8,72.1,30.21,N/A,-737280,0.0,0.0,80,0.00,,,0.00,Wunderground v.1.13,2013-07-14 22:55:00,
2013-07-14 19:00:00,78.7,72.0,30.21,N/A,-737280,0.0,0.0,80,0.00,,,0.00,Wunderground v.1.13,2013-07-14 23:00:00,
2013-07-14 19:05:00,78.4,71.7,30.21,N/A,-737280,0.0,0.0,80,0.00,,,0.00,Wunderground v.1.13,2013-07-14 23:05:00,
2013-07-14 19:10:00,78.1,71.8,30.22,WNW,293,0.0,2.0,81,0.00,,,0.00,Wunderground v.1.13,2013-07-14 23:10:00,
2013-07-14 19:15:00,77.7,71.4,30.21,WNW,293,1.0,3.0,81,0.00,,,0.00,Wunderground v.1.13,2013-07-14 23:15:00,
2013-07-14 19:20:00,77.4,71.8,30.22,WNW,293,0.0,1.0,83,0.00,,,0.00,Wunderground v.1.13,2013-07-14 23:20:00,
2013-07-14 19:25:00,77.0,71.8,30.22,WNW,293,0.0,1.0,84,0.00,,,0.00,Wunderground v.1.13,2013-07-14 23:25:00,
2013-07-14 19:30:00,76.9,71.7,30.22,N/A,-737280,0.0,0.0,84,0.00,,,0.00,Wunderground v.1.13,2013-07-14 23:30:00,
2013-07-14 19:35:00,76.8,71.6,30.22,N/A,-737280,0.0,0.0,84,0.00,,,0.00,Wunderground v.1.13,2013-07-14 23:35:00,
2013-07-14 19:40:00,76.8,71.6,30.22,N/A,-737280,0.0,0.0,84,0.00,,,0.00,Wunderground v.1.13,2013-07-14 23:40:00,
2013-07-14 19:45:00,76.7,71.8,30.22,N/A,-737280,0.0,0.0,85,0.00,,,0.00,Wunderground v.1.13,2013-07-14 23:45:00,
2013-07-14 19:50:00,76.7,71.8,30.23,N/A,-737280,0.0,0.0,85,0.00,,,0.00,Wunderground v.1.13,2013-07-14 23:50:00,
2013-07-14 19:55:00,76.7,71.8,30.23,N/A,-737280,0.0,0.0,85,0.00,,,0.00,Wunderground v.1.13,2013-07-14 23:55:00,
2013-07-14 20:00:00,76.6,71.7,30.23,N/A,-737280,0.0,0.0,85,0.00,,,0.00,Wunderground v.1.13,2013-07-15 00:00:00,
2013-07-14 20:05:00,76.4,71.9,30.23,N/A,-737280,0.0,0.0,86,0.00,,,0.00,Wunderground v.1.13,2013-07-15 00:05:00,
2013-07-14 20:10:00,76.3,71.8,30.23,N/A,-737280,0.0,0.0,86,0.00,,,0.00,Wunderground v.1.13,2013-07-15 00:10:00,
2013-07-14 20:15:00,76.1,71.6,30.23,N/A,-737280,0.0,0.0,86,0.00,,,0.00,Wunderground v.1.13,2013-07-15 00:15:00,
2013-07-14 20:20:00,76.0,71.5,30.23,N/A,-737280,0.0,0.0,86,0.00,,,0.00,Wunderground v.1.13,2013-07-15 00:20:00,
2013-07-14 20:25:00,75.9,71.4,30.23,N/A,-737280,0.0,0.0,86,0.00,,,0.00,Wunderground v.1.13,2013-07-15 00:25:00,
2013-07-14 20:30:00,75.8,71.3,30.23,N/A,-737280,0.0,0.0,86,0.00,,,0.00,Wunderground v.1.13,2013-07-15 00:30:00,
2013-07-14 20:35:00,75.7,71.6,30.23,N/A,-737280,0.0,0.0,87,0.00,,,0.00,Wunderground v.1.13,2013-07-15 00:35:00,
2013-07-14 20:40:00,75.5,71.4,30.23,N/A,-737280,0.0,0.0,87,0.00,,,0.00,Wunderground v.1.13,2013-07-15 00:40:00,
2013-07-14 20:45:00,75.4,71.3,30.23,N/A,-737280,0.0,0.0,87,0.00,,,0.00,Wunderground v.1.13,2013-07-15 00:45:00,
2013-07-14 20:50:00,75.3,71.2,30.23,N/A,-737280,0.0,0.0,87,0.00,,,0.00,Wunderground v.1.13,2013-07-15 00:50:00,
2013-07-14 20:55:00,75.2,71.4,30.23,N/A,-737280,0.0,0.0,88,0.00,,,0.00,Wunderground v.1.13,2013-07-15 00:55:00,
2013-07-14 21:00:00,75.1,71.3,30.23,N/A,-737280,0.0,0.0,88,0.00,,,0.00,Wunderground v.1.13,2013-07-15 01:00:00,
2013-07-14 21:05:00,75.0,71.2,30.23,N/A,-737280,0.0,0.0,88,0.00,,,0.00,Wunderground v.1.13,2013-07-15 01:05:00,
2013-07-14 21:10:00,74.9,71.1,30.23,N/A,-737280,0.0,0.0,88,0.00,,,0.00,Wunderground v.1.13,2013-07-15 01:10:00,
2013-07-14 21:15:00,74.7,70.9,30.23,N/A,-737280,0.0,0.0,88,0.00,,,0.00,Wunderground v.1.13,2013-07-15 01:15:00,
2013-07-14 21:20:00,74.6,70.8,30.23,N/A,-737280,0.0,0.0,88,0.00,,,0.00,Wunderground v.1.13,2013-07-15 01:20:00,
2013-07-14 21:25:00,74.4,70.9,30.23,N/A,-737280,0.0,0.0,89,0.00,,,0.00,Wunderground v.1.13,2013-07-15 01:25:00,
2013-07-14 21:30:00,74.4,70.9,30.24,N/A,-737280,0.0,0.0,89,0.00,,,0.00,Wunderground v.1.13,2013-07-15 01:30:00,
2013-07-14 21:35:00,74.2,70.7,30.24,N/A,-737280,0.0,0.0,89,0.00,,,0.00,Wunderground v.1.13,2013-07-15 01:35:00,
2013-07-14 21:40:00,74.2,70.7,30.23,N/A,-737280,0.0,0.0,89,0.00,,,0.00,Wunderground v.1.13,2013-07-15 01:40:00,
2013-07-14 21:45:00,74.1,70.6,30.24,N/A,-737280,0.0,0.0,89,0.00,,,0.00,Wunderground v.1.13,2013-07-15 01:45:00,
2013-07-14 21:50:00,74.0,70.6,30.24,N/A,-737280,0.0,0.0,89,0.00,,,0.00,Wunderground v.1.13,2013-07-15 01:50:00,
2013-07-14 21:55:00,73.9,70.5,30.24,N/A,-737280,0.0,0.0,89,0.00,,,0.00,Wunderground v.1.13,2013-07-15 01:55:00,
2013-07-14 22:00:00,73.8,70.4,30.24,N/A,-737280,0.0,0.0,89,0.00,,,0.00,Wunderground v.1.13,2013-07-15 02:00:00,
2013-07-14 22:05:00,73.7,70.3,30.24,N/A,-737280,0.0,0.0,89,0.00,,,0.00,Wunderground v.1.13,2013-07-15 02:05:00,
2013-07-14 22:10:00,73.6,70.5,30.24,N/A,-737280,0.0,0.0,90,0.00,,,0.00,Wunderground v.1.13,2013-07-15 02:10:00,
2013-07-14 22:15:00,73.5,70.4,30.24,N/A,-737280,0.0,0.0,90,0.00,,,0.00,Wunderground v.1.13,2013-07-15 02:15:00,
2013-07-14 22:20:00,73.4,70.3,30.24,N/A,-737280,0.0,0.0,90,0.00,,,0.00,Wunderground v.1.13,2013-07-15 02:20:00,
2013-07-14 22:25:00,73.3,70.2,30.24,N/A,-737280,0.0,0.0,90,0.00,,,0.00,Wunderground v.1.13,2013-07-15 02:25:00,
2013-07-14 22:30:00,73.2,70.1,30.24,N/A,-737280,0.0,0.0,90,0.00,,,0.00,Wunderground v.1.13,2013-07-15 02:30:00,
2013-07-14 22:35:00,73.1,70.0,30.24,N/A,-737280,0.0,0.0,90,0.00,,,0.00,Wunderground v.1.13,2013-07-15 02:35:00,
2013-07-14 22:40:00,73.0,69.9,30.24,N/A,-737280,0.0,0.0,90,0.00,,,0.00,Wunderground v.1.13,2013-07-15 02:40:00,
2013-07-14 22:45:00,73.0,69.9,30.24,N/A,-737280,0.0,0.0,90,0.00,,,0.00,Wunderground v.1.13,2013-07-15 02:45:00,
2013-07-14 22:50:00,72.9,69.8,30.24,N/A,-737280,0.0,0.0,90,0.00,,,0.00,Wunderground v.1.13,2013-07-15 02:50:00,
2013-07-14 22:55:00,72.8,69.7,30.24,N/A,-737280,0.0,0.0,90,0.00,,,0.00,Wunderground v.1.13,2013-07-15 02:55:00,
2013-07-14 23:00:00,72.7,69.6,30.24,N/A,-737280,0.0,0.0,90,0.00,,,0.00,Wunderground v.1.13,2013-07-15 03:00:00,
2013-07-14 23:05:00,72.6,69.8,30.24,N/A,-737280,0.0,0.0,91,0.00,,,0.00,Wunderground v.1.13,2013-07-15 03:05:00,
2013-07-14 23:10:00,72.5,69.4,30.24,N/A,-737280,0.0,0.0,90,0.00,,,0.00,Wunderground v.1.13,2013-07-15 03:10:00,
2013-07-14 23:15:00,72.4,69.3,30.24,N/A,-737280,0.0,0.0,90,0.00,,,0.00,Wunderground v.1.13,2013-07-15 03:15:00,
2013-07-14 23:20:00,72.3,69.5,30.24,N/A,-737280,0.0,0.0,91,0.00,,,0.00,Wunderground v.1.13,2013-07-15 03:20:00,
2013-07-14 23:25:00,72.2,69.4,30.24,N/A,-737280,0.0,0.0,91,0.00,,,0.00,Wunderground v.1.13,2013-07-15 03:25:00,
2013-07-14 23:30:00,72.1,69.3,30.24,N/A,-737280,0.0,0.0,91,0.00,,,0.00,Wunderground v.1.13,2013-07-15 03:30:00,
2013-07-14 23:35:00,72.0,69.2,30.24,N/A,-737280,0.0,0.0,91,0.00,,,0.00,Wunderground v.1.13,2013-07-15 03:35:00,
2013-07-14 23:40:00,71.9,69.1,30.24,N/A,-737280,0.0,0.0,91,0.00,,,0.00,Wunderground v.1.13,2013-07-15 03:40:00,
2013-07-14 23:45:00,71.9,69.1,30.24,N/A,-737280,0.0,0.0,91,0.00,,,0.00,Wunderground v.1.13,2013-07-15 03:45:00,
2013-07-14 23:50:00,71.8,69.0,30.24,N/A,-737280,0.0,0.0,91,0.00,,,0.00,Wunderground v.1.13,2013-07-15 03:50:00,
2013-07-14 23:55:00,71.7,68.9,30.24,N/A,-737280,0.0,0.0,91,0.00,,,0.00,Wunderground v.1.13,2013-07-15 03:55:00,